Gillette, WY

9:49 AM MDT on October 02, 2014 (GMT -0600)
RAWS ECHETA WY US | Change Station
CLOSE
Current Station
Personal Weather Station
Location: Gillette, WY
Elevation: 4396 ft
Nearby Weather Stations

Elev 4396 ft 44.47 °N, 105.84 °W | Updated 58 minutes ago

Clear
Clear
43 °F
Feels Like 43 °F
N
2
Wind Variable Wind from NNW
Gusts 8.0 mph

Today
High -- | Low -- °F
--% Chance of Precip.
Yesterday
High -- | Low -- °F
Precip. -- in
7:01 AM 6:41 PM
First Quarter, 60% visible
Pressure 30.02 in
Visibility 10.0 miles
Clouds Clear
Windchill 43 °F
Dew Point 36 °F
Humidity 77%
Rainfall 0.00 in
Snow Depth 1 in , 0 in , 0 in
UV 1 out of 12
Pollen 3.30 out of 12
Air Quality Not available.
Flu Activity Not available.
METAR KGCC 021453Z AUTO 34009G17KT 10SM CLR 07/02 A3002 RMK AO2 SLP164 T00720017 53004

More Conditions Fewer Conditions

Pressure 30.02 in
Visibility 10.0 miles
Clouds Clear
Windchill 43 °F
Dew Point 36 °F
Humidity 77%
Rainfall 0.00 in
Snow Depth 1 in , 0 in , 0 in
UV 1 out of 12
Pollen 3.30 out of 12
Air Quality Not available.
Flu Activity Not available.
METAR KGCC 021453Z AUTO 34009G17KT 10SM CLR 07/02 A3002 RMK AO2 SLP164 T00720017 53004

More Conditions Fewer Conditions

10-Day Weather Forecast

Almanac

Astronomy

Oct. 02, 2014 Rise Set
Actual Time 7:01 AM MDT 6:41 PM MDT
Civil Twilight 6:32 AM MDT 7:10 PM MDT
Nautical Twilight 5:58 AM MDT 7:44 PM MDT
Astronomical Twilight 5:24 AM MDT 8:18 PM MDT
Moon 3:02 PM MDT 12:08 AM MDT
Length of Visible Light 12h 37m
Length of Day
11h 39m
Tomorrow will be 3m 3s shorter.
First Quarter, 60% of the Moon is Illuminated
Today
First Quarter
Oct 8
Full
Oct 15
Last Quarter
Oct 23
New
Oct 30
First Quarter

Today's Extremes

State Highs State Lows

Community

WunderPhotos

Upload Photos

1,758,276 photos uploaded!

WunderBlogs® & News

Nearby

Snow Depth

Station Depth Elevation
Bald Mountain 1 in 9380 ft
New Fork Lake 0 in 8340 ft
Thumb Divide 0 in 7980 ft
Phillips Bench 0 in 8200 ft
Cold Springs 1 in 9630 ft

Earthquake Activity

City Distance Mag. Time & Date
No recent earthquake activity has been reported nearby.
Minimum magnitude displayed is 2.5.

Coastal Water Temperatures

Place Temperature
No Stations Reporting

Nearby Weather Stations